createdAt,value
2022-09-15T00:02:32.379Z,96.84
2022-09-15T00:07:51.956Z,96.77
2022-09-15T00:13:19.696Z,96.69
2022-09-15T00:18:31.243Z,97.32
2022-09-15T00:23:51.955Z,97.81
2022-09-15T00:29:10.177Z,98.13
2022-09-15T00:34:28.784Z,98.17
2022-09-15T00:39:48.313Z,98.13
2022-09-15T00:45:08.276Z,98
2022-09-15T00:50:27.257Z,98.06
2022-09-15T00:55:46.850Z,98.07
2022-09-15T01:01:05.496Z,98.07
2022-09-15T01:06:25.246Z,98.03
2022-09-15T01:11:54.366Z,98.01
2022-09-15T01:17:03.656Z,98.07
2022-09-15T01:22:22.655Z,98.32
2022-09-15T01:27:42.758Z,98.58
2022-09-15T01:33:00.865Z,98.73
2022-09-15T01:38:20.253Z,98.58
2022-09-15T01:43:39.105Z,98.34
2022-09-15T01:48:58.763Z,98.4
2022-09-15T01:54:18.428Z,98.44
2022-09-15T01:59:37.199Z,98.53
2022-09-15T02:04:57.463Z,98.59
2022-09-15T02:10:16.265Z,98.71
2022-09-15T02:15:34.896Z,98.72
2022-09-15T02:20:53.558Z,98.68
2022-09-15T02:26:13.229Z,97.64
2022-09-15T02:31:32.707Z,97.21
2022-09-15T02:36:52.063Z,96.16
2022-09-15T02:42:11.838Z,96.15
2022-09-15T02:47:57.175Z,95.85
2022-09-15T02:53:15.304Z,95.74
2022-09-15T02:58:43.221Z,95.59
2022-09-15T03:03:53.245Z,95.71
2022-09-15T03:09:11.877Z,96.16
2022-09-15T03:14:31.052Z,96.71
2022-09-15T03:19:50.575Z,96.88
2022-09-15T03:25:09.564Z,97
2022-09-15T03:30:29.214Z,96.95
2022-09-15T03:35:48.714Z,96.55
2022-09-15T03:41:07.903Z,96.3
2022-09-15T03:46:26.880Z,96.1
2022-09-15T03:51:46.452Z,95.73
2022-09-15T03:57:05.064Z,95.66
2022-09-15T04:02:24.149Z,95.48
2022-09-15T04:07:43.360Z,95.16
2022-09-15T04:13:10.794Z,95.29
2022-09-15T04:18:22.662Z,95.88
2022-09-15T04:23:41.656Z,96.81
2022-09-15T04:29:04.125Z,97.45
2022-09-15T04:34:19.811Z,97.66
2022-09-15T04:39:38.881Z,97.46
2022-09-15T04:44:58.016Z,97.2
2022-09-15T04:50:16.958Z,97.52
2022-09-15T04:55:36.245Z,97.53
2022-09-15T05:00:55.992Z,97.59
2022-09-15T05:06:14.855Z,97.83
2022-09-15T05:11:33.792Z,97.91
2022-09-15T05:16:53.171Z,97.54
2022-09-15T05:22:12.937Z,97.43
2022-09-15T05:27:32.246Z,97.83
2022-09-15T05:32:51.473Z,98.5
2022-09-15T05:38:10.324Z,98.96
2022-09-15T05:43:29.076Z,99.25
2022-09-15T05:48:47.973Z,99.48
2022-09-15T05:54:06.814Z,99.59
2022-09-15T05:59:25.930Z,99.69
2022-09-15T06:04:44.718Z,99.74
2022-09-15T06:10:03.867Z,99.81
2022-09-15T06:15:23.947Z,99.83
2022-09-15T06:20:42.586Z,99.84
2022-09-15T06:26:01.536Z,99.85
2022-09-15T06:31:21.055Z,99.86
2022-09-15T06:36:39.947Z,99.9
2022-09-15T06:42:02.575Z,99.9
2022-09-15T06:47:18.262Z,99.92
2022-09-15T06:52:37.331Z,99.96
2022-09-15T06:57:56.429Z,99.99
2022-09-15T07:03:16.094Z,99.99
2022-09-15T07:08:35.010Z,99.99
2022-09-15T07:13:54.469Z,99.99
2022-09-15T07:19:13.827Z,99.99
2022-09-15T07:24:32.696Z,99.94
2022-09-15T07:29:52.038Z,99.94
2022-09-15T07:35:10.948Z,99.86
2022-09-15T07:40:29.956Z,99.72
2022-09-15T07:45:49.436Z,99.65
2022-09-15T07:51:08.369Z,99.42
2022-09-15T07:56:27.964Z,99.22
2022-09-15T08:01:46.585Z,98.65
2022-09-15T08:07:06.257Z,98.33
2022-09-15T08:12:25.281Z,97.65
2022-09-15T08:17:44.165Z,96.44
2022-09-15T08:23:03.128Z,96.06
2022-09-15T08:28:22.106Z,96.51
2022-09-15T08:33:45.375Z,97.44
2022-09-15T08:39:00.501Z,96.35
2022-09-15T08:44:19.562Z,95.81
2022-09-15T08:49:50.872Z,94.66
2022-09-15T08:54:57.970Z,93.95
2022-09-15T09:00:17.340Z,92.69
2022-09-15T09:10:55.748Z,93.44
2022-09-15T09:16:15.010Z,93.7
2022-09-15T09:21:33.896Z,92
2022-09-15T09:26:53.234Z,92.73
2022-09-15T09:32:12.897Z,94.19
2022-09-15T09:37:31.786Z,94.91
2022-09-15T09:42:52.060Z,95.2
2022-09-15T09:48:10.391Z,94.87
2022-09-15T09:53:29.381Z,95.34
2022-09-15T09:58:48.752Z,94.16
2022-09-15T10:04:08.105Z,94.07
2022-09-15T10:09:32.673Z,93.48
2022-09-15T10:14:47.494Z,92.94
2022-09-15T10:20:06.257Z,93.77
2022-09-15T10:25:32.610Z,94.29
2022-09-15T10:30:44.081Z,92.94
2022-09-15T10:36:02.908Z,92.19
2022-09-15T10:41:22.447Z,91.01
2022-09-15T10:46:41.938Z,89.86
2022-09-15T10:52:00.722Z,88.11
2022-09-15T10:57:19.379Z,88.9
2022-09-15T11:02:39.765Z,87.7
2022-09-15T11:07:59.089Z,86.44
2022-09-15T11:13:18.220Z,87.65
2022-09-15T11:18:37.840Z,87.46
2022-09-15T11:23:57.166Z,88.13
2022-09-15T11:29:15.645Z,88.17
2022-09-15T11:34:35.826Z,90
2022-09-15T11:41:10.008Z,88.2
2022-09-15T11:45:13.634Z,86.49
2022-09-15T11:50:32.884Z,87.14
2022-09-15T11:55:52.190Z,84.26
2022-09-15T12:01:11.188Z,83.47
2022-09-15T12:06:30.527Z,83.25
2022-09-15T12:11:50.025Z,82.95
2022-09-15T12:17:08.828Z,81.75
2022-09-15T12:22:27.830Z,83.87
2022-09-15T12:27:47.105Z,81.28
2022-09-15T12:33:06.015Z,81.9
2022-09-15T12:38:25.122Z,79.85
2022-09-15T12:43:44.150Z,78.66
2022-09-15T12:49:03.698Z,78.44
2022-09-15T12:54:22.493Z,79.35
2022-09-15T12:59:42.027Z,80.43
2022-09-15T13:05:10.571Z,81.26
2022-09-15T13:10:21.580Z,80.76
2022-09-15T13:16:55.737Z,83.11
2022-09-15T13:21:10.418Z,79.78
2022-09-15T13:26:19.131Z,78.33
2022-09-15T13:31:37.593Z,76.33
2022-09-15T13:42:16.767Z,75.83
2022-09-15T13:47:36.078Z,68.62
2022-09-15T13:54:34.699Z,67.56
2022-09-15T14:03:34.406Z,65.26
2022-09-15T14:08:53.825Z,64.76
2022-09-15T14:14:13.082Z,66
2022-09-15T14:19:31.926Z,69.19
2022-09-15T14:24:51.231Z,67.12
2022-09-15T14:33:24.294Z,63.82
2022-09-15T14:37:40.799Z,65.67
2022-09-15T14:41:56.267Z,66.87
2022-09-15T14:48:54.783Z,65.08
2022-09-15T14:57:30.963Z,69.5
2022-09-15T15:02:02.997Z,62.6
2022-09-15T15:07:21.957Z,64.17
2022-09-15T15:12:41.100Z,63.89
2022-09-15T15:18:00.319Z,65.16
2022-09-15T15:23:20.484Z,63.72
2022-09-15T15:29:54.639Z,65.17
2022-09-15T15:39:18.976Z,63.4
2022-09-15T15:44:37.718Z,64.85
2022-09-15T15:53:10.771Z,66.94
2022-09-15T16:00:34.558Z,67.74
2022-09-15T16:05:53.812Z,68.44
2022-09-15T16:11:12.120Z,65.79
2022-09-15T16:16:31.805Z,66.53
2022-09-15T16:21:50.453Z,65.04
2022-09-15T16:28:14.226Z,64.94
2022-09-15T16:32:29.378Z,66.08
2022-09-15T16:37:48.762Z,67.39
2022-09-15T16:44:22.905Z,69.54
2022-09-15T16:48:28.248Z,71.65
2022-09-15T16:53:45.017Z,72.71
2022-09-15T16:59:04.615Z,74.04
2022-09-15T17:05:38.764Z,74.44
2022-09-15T17:09:42.529Z,74.98
2022-09-15T17:16:41.151Z,75.11
2022-09-15T17:20:22.853Z,73.62
2022-09-15T17:36:19.379Z,75.01
2022-09-15T17:46:57.243Z,75.86
2022-09-15T17:52:14.895Z,75.94
2022-09-15T17:57:33.735Z,76.68
2022-09-15T18:02:52.098Z,77.01
2022-09-15T18:08:11.422Z,77.17
2022-09-15T18:13:30.965Z,77.08
2022-09-15T18:18:50.114Z,77
2022-09-15T18:24:09.337Z,77.64
2022-09-15T18:29:29.148Z,77.94
2022-09-15T18:34:47.469Z,78.44
2022-09-15T18:40:06.227Z,79.12
2022-09-15T18:45:25.624Z,80.04
2022-09-15T18:50:44.324Z,81.1
2022-09-15T18:56:03.636Z,82.68
2022-09-15T19:01:22.871Z,83.31
2022-09-15T19:06:41.895Z,83.34
2022-09-15T19:12:00.669Z,83.18
2022-09-15T19:17:19.963Z,84.39
2022-09-15T19:22:39.156Z,85.71
2022-09-15T19:27:58.632Z,86.97
2022-09-15T19:33:18.235Z,86.91
2022-09-15T19:38:36.671Z,87.47
2022-09-15T19:43:56.535Z,87.52
2022-09-15T19:49:14.793Z,87.84
2022-09-15T19:54:34.613Z,87.95
2022-09-15T19:59:53.948Z,86.73
2022-09-15T20:05:12.374Z,86.13
2022-09-15T20:10:32.383Z,87.7
2022-09-15T20:15:51.840Z,86.82
2022-09-15T20:22:26.046Z,87.13
2022-09-15T20:26:41.410Z,86.31
2022-09-15T20:31:49.063Z,85.77
2022-09-15T20:38:23.242Z,86.38
2022-09-15T20:42:27.493Z,87.14
2022-09-15T20:47:47.782Z,86.7
2022-09-15T20:53:06.122Z,87.8
2022-09-15T20:58:25.862Z,88.52
2022-09-15T21:05:00.007Z,88.34
2022-09-15T21:14:24.446Z,87.06
2022-09-15T21:18:41.110Z,86.42
2022-09-15T21:27:46.645Z,90.53
2022-09-15T21:36:19.862Z,90.04
2022-09-15T21:41:38.658Z,91.31
2022-09-15T21:46:59.027Z,91.62
2022-09-15T21:53:33.198Z,91.53
2022-09-15T21:57:37.220Z,92.05
2022-09-15T22:02:56.234Z,92.05
2022-09-15T22:08:14.366Z,91.63
2022-09-15T22:13:34.183Z,92.71
2022-09-15T22:20:08.298Z,91.39
2022-09-15T22:24:14.160Z,91.68
2022-09-15T22:29:31.430Z,92.1
2022-09-15T22:34:50.894Z,91.96
2022-09-15T22:40:10.577Z,90.69
2022-09-15T22:45:28.951Z,91.47
2022-09-15T22:50:56.580Z,92.54
2022-09-15T22:56:08.220Z,92.93
2022-09-15T23:01:28.514Z,91.38
2022-09-15T23:06:47.356Z,92.41
2022-09-15T23:12:06.904Z,88.62
2022-09-15T23:18:41.083Z,86.72
2022-09-15T23:28:05.310Z,88.54
2022-09-15T23:33:22.357Z,87.56
2022-09-15T23:38:42.501Z,91.78
2022-09-15T23:44:01.000Z,93.03
2022-09-15T23:49:20.923Z,92.92
2022-09-15T23:55:55.095Z,93.69
2022-09-15T23:59:58.428Z,93.89
